createdAt,value
2018-12-24T00:00:34.060Z,2.73
2018-12-24T00:03:03.994Z,1.70
2018-12-24T00:05:33.950Z,1.50
2018-12-24T00:08:03.917Z,2.00
2018-12-24T00:10:33.885Z,1.93
2018-12-24T00:13:03.852Z,2.40
2018-12-24T00:15:33.904Z,2.00
2018-12-24T00:18:03.862Z,1.90
2018-12-24T00:20:33.795Z,2.00
2018-12-24T00:23:03.781Z,2.10
2018-12-24T00:25:33.684Z,1.50
2018-12-24T00:28:03.606Z,1.70
2018-12-24T00:30:33.647Z,1.97
2018-12-24T00:33:03.587Z,2.30
2018-12-24T00:35:33.518Z,3.03
2018-12-24T00:38:03.463Z,2.13
2018-12-24T00:40:33.375Z,2.00
2018-12-24T00:43:03.523Z,1.60
2018-12-24T00:45:33.464Z,1.33
2018-12-24T00:48:03.522Z,1.30
2018-12-24T00:50:33.455Z,1.00
2018-12-24T00:53:03.569Z,1.00
2018-12-24T00:55:33.526Z,1.10
2018-12-24T00:58:03.448Z,1.00
2018-12-24T01:00:33.412Z,1.10
2018-12-24T01:03:03.440Z,1.10
2018-12-24T01:05:33.391Z,0.90
2018-12-24T01:08:03.339Z,1.27
2018-12-24T01:10:33.267Z,1.10
2018-12-24T01:13:03.211Z,1.00
2018-12-24T01:15:33.210Z,1.40
2018-12-24T01:18:03.165Z,1.03
2018-12-24T01:20:33.939Z,1.37
2018-12-24T01:23:04.063Z,1.47
2018-12-24T01:25:33.998Z,1.30
2018-12-24T01:28:03.966Z,1.83
2018-12-24T01:30:33.933Z,1.60
2018-12-24T01:33:03.859Z,1.20
2018-12-24T01:35:33.794Z,1.13
2018-12-24T01:38:03.748Z,1.00
2018-12-24T01:40:33.696Z,1.10
2018-12-24T01:43:03.631Z,1.50
2018-12-24T01:45:33.630Z,1.62
2018-12-24T01:48:03.567Z,1.70
2018-12-24T01:50:33.634Z,1.30
2018-12-24T01:53:03.634Z,1.40
2018-12-24T01:55:33.605Z,1.20
2018-12-24T01:58:03.531Z,1.10
2018-12-24T02:00:33.530Z,1.20
2018-12-24T02:03:03.475Z,1.57
2018-12-24T02:05:33.411Z,2.00
2018-12-24T02:08:03.406Z,1.13
2018-12-24T02:10:33.462Z,1.60
2018-12-24T02:13:03.416Z,1.30
2018-12-24T02:15:33.404Z,1.40
2018-12-24T02:18:03.336Z,1.10
2018-12-24T02:20:33.268Z,1.07
2018-12-24T02:23:03.231Z,2.20
2018-12-24T02:25:33.179Z,1.47
2018-12-24T02:28:03.304Z,1.40
2018-12-24T02:30:33.286Z,1.17
2018-12-24T02:33:03.284Z,1.43
2018-12-24T02:35:33.262Z,1.40
2018-12-24T02:38:03.220Z,1.50
2018-12-24T02:40:33.176Z,1.43
2018-12-24T02:43:03.167Z,1.80
2018-12-24T02:45:33.164Z,1.30
2018-12-24T02:48:03.132Z,1.30
2018-12-24T02:50:33.072Z,1.50
2018-12-24T02:53:03.107Z,1.83
2018-12-24T02:55:33.059Z,1.63
2018-12-24T02:58:03.007Z,1.30
2018-12-24T03:00:33.053Z,1.33
2018-12-24T03:03:03.023Z,1.20
2018-12-24T03:05:32.963Z,1.30
2018-12-24T03:08:02.967Z,1.33
2018-12-24T03:10:32.937Z,1.30
2018-12-24T03:13:03.349Z,1.20
2018-12-24T03:15:33.412Z,1.07
2018-12-24T03:18:03.379Z,1.40
2018-12-24T03:20:33.348Z,1.17
2018-12-24T03:23:03.292Z,1.00
2018-12-24T03:25:33.268Z,0.80
2018-12-24T03:28:03.203Z,1.13
2018-12-24T03:30:33.175Z,1.17
2018-12-24T03:33:03.131Z,1.10
2018-12-24T03:35:33.060Z,1.20
2018-12-24T03:38:03.048Z,1.17
2018-12-24T03:40:33.001Z,1.30
2018-12-24T03:43:12.117Z,1.03
2018-12-24T03:45:34.563Z,1.10
2018-12-24T03:48:04.516Z,1.20
2018-12-24T03:50:34.511Z,0.90
2018-12-24T03:53:04.465Z,1.37
2018-12-24T03:55:34.475Z,1.17
2018-12-24T03:58:04.495Z,1.00
2018-12-24T04:00:34.496Z,1.07
2018-12-24T04:03:04.419Z,1.17
2018-12-24T04:05:34.371Z,0.97
2018-12-24T04:08:04.345Z,2.03
2018-12-24T04:10:34.263Z,1.40
2018-12-24T04:13:04.220Z,2.40
2018-12-24T04:15:34.169Z,1.50
2018-12-24T04:18:04.130Z,1.40
2018-12-24T04:20:34.183Z,1.20
2018-12-24T04:23:04.170Z,1.30
2018-12-24T04:25:34.095Z,1.10
2018-12-24T04:28:04.048Z,1.10
2018-12-24T04:30:34.023Z,1.07
2018-12-24T04:33:03.964Z,1.10
2018-12-24T04:35:33.885Z,1.27
2018-12-24T04:38:05.103Z,1.07
2018-12-24T04:40:35.031Z,1.10
2018-12-24T04:43:04.967Z,1.30
2018-12-24T04:45:34.927Z,0.90
2018-12-24T04:48:04.925Z,1.17
2018-12-24T04:50:34.875Z,1.00
2018-12-24T04:53:04.851Z,1.00
2018-12-24T04:55:34.860Z,0.80
2018-12-24T04:58:05.028Z,1.80
2018-12-24T05:00:35.012Z,0.83
2018-12-24T05:03:07.922Z,0.98
2018-12-24T05:05:37.918Z,1.30
2018-12-24T05:08:07.967Z,0.80
2018-12-24T05:10:37.902Z,0.93
2018-12-24T05:13:07.894Z,1.10
2018-12-24T05:15:37.944Z,1.00
2018-12-24T05:18:07.866Z,0.87
2018-12-24T05:20:37.800Z,1.20
2018-12-24T05:23:07.811Z,0.90
2018-12-24T05:25:37.712Z,1.23
2018-12-24T05:28:07.628Z,1.20
2018-12-24T05:30:37.620Z,1.00
2018-12-24T05:33:07.566Z,1.60
2018-12-24T05:35:37.496Z,0.90
2018-12-24T05:38:07.491Z,1.00
2018-12-24T05:40:37.441Z,1.07
2018-12-24T05:43:07.410Z,1.10
2018-12-24T05:45:38.584Z,1.27
2018-12-24T05:48:08.563Z,1.00
2018-12-24T05:50:38.491Z,1.20
2018-12-24T05:53:08.490Z,1.33
2018-12-24T05:55:38.428Z,1.10
2018-12-24T05:58:08.394Z,1.80
2018-12-24T06:00:38.504Z,1.40
2018-12-24T06:03:08.424Z,1.20
2018-12-24T06:05:38.507Z,1.43
2018-12-24T06:08:08.614Z,1.10
2018-12-24T06:10:38.656Z,1.20
2018-12-24T06:13:08.747Z,1.80
2018-12-24T06:15:38.768Z,1.50
2018-12-24T06:18:08.937Z,1.70
2018-12-24T06:20:39.051Z,1.67
2018-12-24T06:23:11.246Z,1.93
2018-12-24T06:25:41.183Z,1.80
2018-12-24T06:28:11.159Z,1.47
2018-12-24T06:30:41.143Z,1.50
2018-12-24T06:33:11.076Z,1.70
2018-12-24T06:35:41.017Z,1.60
2018-12-24T06:38:10.977Z,1.93
2018-12-24T06:40:40.933Z,2.17
2018-12-24T06:43:10.878Z,1.30
2018-12-24T06:45:40.916Z,1.77
2018-12-24T06:48:10.880Z,1.63
2018-12-24T06:50:40.959Z,1.90
2018-12-24T06:53:10.996Z,1.80
2018-12-24T06:55:43.749Z,1.97
2018-12-24T06:58:13.707Z,1.87
2018-12-24T07:00:43.680Z,1.83
2018-12-24T07:03:13.687Z,2.50
2018-12-24T07:05:43.648Z,1.97
2018-12-24T07:08:13.676Z,1.73
2018-12-24T07:10:43.632Z,2.10
2018-12-24T07:13:13.596Z,2.20
2018-12-24T07:15:43.547Z,1.70
2018-12-24T07:18:13.530Z,2.57
2018-12-24T07:20:43.491Z,2.77
2018-12-24T07:23:13.476Z,2.23
2018-12-24T07:25:43.406Z,2.40
2018-12-24T07:28:13.362Z,2.20
2018-12-24T07:30:43.372Z,2.37
2018-12-24T07:33:13.344Z,1.70
2018-12-24T07:35:43.305Z,1.47
2018-12-24T07:38:13.267Z,1.50
2018-12-24T07:40:43.208Z,1.83
2018-12-24T07:43:13.223Z,1.80
2018-12-24T07:45:43.269Z,3.27
2018-12-24T07:48:13.352Z,4.20
2018-12-24T07:50:43.345Z,3.17
2018-12-24T07:53:13.331Z,2.63
2018-12-24T07:55:55.054Z,1.77
2018-12-24T07:58:25.104Z,1.80
2018-12-24T08:00:55.039Z,2.87
2018-12-24T08:03:24.998Z,2.70
2018-12-24T08:05:55.056Z,2.63
2018-12-24T08:08:25.031Z,2.30
2018-12-24T08:10:54.962Z,3.20
2018-12-24T08:13:24.913Z,2.97
2018-12-24T08:15:54.878Z,3.60
2018-12-24T08:18:24.911Z,4.00
2018-12-24T08:20:54.916Z,3.58
2018-12-24T08:23:24.866Z,3.43
2018-12-24T08:25:54.796Z,3.87
2018-12-24T08:28:24.823Z,2.90
2018-12-24T08:30:54.778Z,3.10
2018-12-24T08:33:24.735Z,3.40
2018-12-24T08:35:54.732Z,2.70
2018-12-24T08:38:24.799Z,4.30
2018-12-24T08:40:54.803Z,3.10
2018-12-24T08:43:24.774Z,3.80
2018-12-24T08:45:54.733Z,3.60
2018-12-24T08:48:24.682Z,4.67
2018-12-24T08:50:54.682Z,5.47
2018-12-24T08:53:24.626Z,6.00
2018-12-24T08:55:54.560Z,6.30
2018-12-24T08:58:24.587Z,7.10
2018-12-24T09:00:54.561Z,7.30
2018-12-24T09:03:24.492Z,7.20
2018-12-24T09:05:54.493Z,6.13
2018-12-24T09:08:24.523Z,7.13
2018-12-24T09:10:54.479Z,6.40
2018-12-24T09:13:24.484Z,5.30
2018-12-24T09:15:54.416Z,5.40
2018-12-24T09:18:24.339Z,6.00
2018-12-24T09:20:54.301Z,5.33
2018-12-24T09:23:24.255Z,4.33
2018-12-24T09:25:54.288Z,3.87
2018-12-24T09:28:24.364Z,2.95
2018-12-24T09:30:54.418Z,2.70
2018-12-24T09:33:24.387Z,3.07
2018-12-24T09:35:54.400Z,2.77
2018-12-24T09:38:24.339Z,4.17
2018-12-24T09:40:54.342Z,7.30
2018-12-24T09:43:24.315Z,6.87
2018-12-24T09:45:54.272Z,7.20
2018-12-24T09:48:24.326Z,4.90
2018-12-24T09:50:54.292Z,7.30
2018-12-24T09:53:24.257Z,7.80
2018-12-24T09:55:54.204Z,6.43
2018-12-24T09:58:24.195Z,5.70
2018-12-24T10:00:54.156Z,5.50
2018-12-24T10:03:28.485Z,5.97
2018-12-24T10:06:08.488Z,6.20
2018-12-24T10:08:38.458Z,7.53
2018-12-24T10:11:08.461Z,7.00
2018-12-24T10:13:38.398Z,7.10
2018-12-24T10:16:08.406Z,7.63
2018-12-24T10:18:38.376Z,7.20
2018-12-24T10:21:08.326Z,7.20
2018-12-24T10:23:38.341Z,5.97
2018-12-24T10:26:08.267Z,7.10
2018-12-24T10:28:38.215Z,6.50
2018-12-24T10:31:08.201Z,4.90
2018-12-24T10:33:38.175Z,5.47
2018-12-24T10:36:08.147Z,5.22
2018-12-24T10:38:38.231Z,5.67
2018-12-24T10:41:18.573Z,4.90
2018-12-24T10:43:48.512Z,5.80
2018-12-24T10:46:18.644Z,4.30
2018-12-24T10:48:48.641Z,5.20
2018-12-24T10:51:18.703Z,4.47
2018-12-24T10:53:48.694Z,4.50
2018-12-24T10:56:18.805Z,6.27
2018-12-24T10:58:48.786Z,4.50
2018-12-24T11:01:18.801Z,4.40
2018-12-24T11:03:48.887Z,4.70
2018-12-24T11:06:18.847Z,4.33
2018-12-24T11:08:48.932Z,4.77
2018-12-24T11:11:18.960Z,4.87
2018-12-24T11:13:49.041Z,5.40
2018-12-24T11:16:19.027Z,4.77
2018-12-24T11:18:48.971Z,4.80
2018-12-24T11:21:18.978Z,4.03
2018-12-24T11:23:49.176Z,3.97
2018-12-24T11:26:19.128Z,3.90
2018-12-24T11:28:49.205Z,4.03
2018-12-24T11:31:19.140Z,4.93
2018-12-24T11:33:49.208Z,3.97
2018-12-24T11:36:19.167Z,3.37
2018-12-24T11:38:49.122Z,2.63
2018-12-24T11:41:19.108Z,2.83
2018-12-24T11:43:49.064Z,2.27
2018-12-24T11:46:19.064Z,2.37
2018-12-24T11:48:49.144Z,2.20
2018-12-24T11:51:19.198Z,2.53
2018-12-24T11:53:49.237Z,2.70
2018-12-24T11:56:19.235Z,2.37
2018-12-24T11:58:49.176Z,3.13
2018-12-24T12:01:19.143Z,3.63
2018-12-24T12:03:49.116Z,3.27
2018-12-24T12:06:19.888Z,3.67
2018-12-24T12:08:50.123Z,2.97
2018-12-24T12:11:20.056Z,3.13
2018-12-24T12:13:50.117Z,2.60
2018-12-24T12:16:20.172Z,4.93
2018-12-24T12:18:50.104Z,3.73
2018-12-24T12:21:20.161Z,3.70
2018-12-24T12:23:50.105Z,2.40
2018-12-24T12:26:20.032Z,2.03
2018-12-24T12:28:50.015Z,2.50
2018-12-24T12:31:20.083Z,2.27
2018-12-24T12:33:50.022Z,2.10
2018-12-24T12:36:20.031Z,2.83
2018-12-24T12:38:49.978Z,3.27
2018-12-24T12:41:19.931Z,3.13
2018-12-24T12:43:49.881Z,3.33
2018-12-24T12:46:19.827Z,4.43
2018-12-24T12:48:49.755Z,3.57
2018-12-24T12:51:19.711Z,6.00
2018-12-24T12:53:49.663Z,2.43
2018-12-24T12:56:19.625Z,4.10
2018-12-24T12:58:49.585Z,2.60
2018-12-24T13:01:19.556Z,3.73
2018-12-24T13:03:49.489Z,3.73
2018-12-24T13:06:19.468Z,3.20
2018-12-24T13:08:49.415Z,3.83
2018-12-24T13:11:19.412Z,3.90
2018-12-24T13:13:49.375Z,4.47
2018-12-24T13:16:19.314Z,4.30
2018-12-24T13:18:49.331Z,3.80
2018-12-24T13:21:19.292Z,4.67
2018-12-24T13:23:49.288Z,3.57
2018-12-24T13:26:19.240Z,3.40
2018-12-24T13:28:49.224Z,3.20
2018-12-24T13:31:19.159Z,3.60
2018-12-24T13:33:49.129Z,5.07
2018-12-24T13:36:19.144Z,4.40
2018-12-24T13:38:49.083Z,3.90
2018-12-24T13:41:19.067Z,4.37
2018-12-24T13:43:49.087Z,5.20
2018-12-24T13:46:19.167Z,3.80
2018-12-24T13:48:49.152Z,4.60
2018-12-24T13:51:19.151Z,4.10
2018-12-24T13:53:49.100Z,3.90
2018-12-24T13:56:19.134Z,4.10
2018-12-24T13:58:49.098Z,4.60
2018-12-24T14:01:21.681Z,4.17
2018-12-24T14:03:51.664Z,4.13
2018-12-24T14:06:21.761Z,5.37
2018-12-24T14:08:51.724Z,5.10
2018-12-24T14:11:21.687Z,5.20
2018-12-24T14:13:51.684Z,4.97
2018-12-24T14:16:21.688Z,5.70
2018-12-24T14:18:51.620Z,4.93
2018-12-24T14:21:21.704Z,5.30
2018-12-24T14:23:51.651Z,4.87
2018-12-24T14:26:21.927Z,4.73
2018-12-24T14:28:51.926Z,5.65
2018-12-24T14:31:21.875Z,5.37
2018-12-24T14:33:54.591Z,4.30
2018-12-24T14:36:26.754Z,6.00
2018-12-24T14:38:56.700Z,7.30
2018-12-24T14:41:26.668Z,7.77
2018-12-24T14:43:56.642Z,5.10
2018-12-24T14:46:26.623Z,6.43
2018-12-24T14:48:56.599Z,6.87
2018-12-24T14:51:26.547Z,7.40
2018-12-24T14:53:56.938Z,7.27
2018-12-24T14:56:27.048Z,8.10
2018-12-24T14:58:56.986Z,7.60
2018-12-24T15:01:26.912Z,8.97
2018-12-24T15:03:56.904Z,9.07
2018-12-24T15:06:26.928Z,8.60
2018-12-24T15:08:57.019Z,8.30
2018-12-24T15:11:27.086Z,8.73
2018-12-24T15:13:57.155Z,9.27
2018-12-24T15:16:33.854Z,9.40
2018-12-24T15:18:59.079Z,7.20
2018-12-24T15:21:29.020Z,8.70
2018-12-24T15:23:58.995Z,10.13
2018-12-24T15:26:29.086Z,9.60
2018-12-24T15:28:59.098Z,9.90
2018-12-24T15:31:29.047Z,8.77
2018-12-24T15:33:59.043Z,9.70
2018-12-24T15:36:29.043Z,12.40
2018-12-24T15:38:58.998Z,10.40
2018-12-24T15:41:29.088Z,10.10
2018-12-24T15:43:59.097Z,12.93
2018-12-24T15:46:29.049Z,11.53
2018-12-24T15:48:58.991Z,10.17
2018-12-24T15:51:29.085Z,10.40
2018-12-24T15:53:59.111Z,10.80
2018-12-24T15:56:29.096Z,10.80
2018-12-24T15:58:59.135Z,11.00
2018-12-24T16:01:29.236Z,11.47
2018-12-24T16:03:59.229Z,12.00
2018-12-24T16:06:29.364Z,11.53
2018-12-24T16:08:59.358Z,12.03
2018-12-24T16:11:29.480Z,11.93
2018-12-24T16:13:59.431Z,13.00
2018-12-24T16:16:29.456Z,12.57
2018-12-24T16:18:59.587Z,13.53
2018-12-24T16:21:29.563Z,12.80
2018-12-24T16:23:59.531Z,13.33
2018-12-24T16:26:29.600Z,14.33
2018-12-24T16:28:59.620Z,13.47
2018-12-24T16:31:29.559Z,13.70
2018-12-24T16:33:59.535Z,12.43
2018-12-24T16:36:29.498Z,13.33
2018-12-24T16:38:59.532Z,14.90
2018-12-24T16:41:29.521Z,12.43
2018-12-24T16:43:59.492Z,13.93
2018-12-24T16:46:29.416Z,13.67
2018-12-24T16:48:59.387Z,15.13
2018-12-24T16:52:02.526Z,15.47
2018-12-24T16:54:32.550Z,15.00
2018-12-24T16:57:02.599Z,14.93
2018-12-24T16:59:32.533Z,16.17
2018-12-24T17:02:02.471Z,15.07
2018-12-24T17:04:32.405Z,15.27
2018-12-24T17:07:02.348Z,15.77
2018-12-24T17:09:32.372Z,13.93
2018-12-24T17:12:02.312Z,13.93
2018-12-24T17:14:32.256Z,15.23
2018-12-24T17:17:07.705Z,14.53
2018-12-24T17:19:33.841Z,15.50
2018-12-24T17:22:03.819Z,15.43
2018-12-24T17:24:33.923Z,15.30
2018-12-24T17:27:06.151Z,16.67
2018-12-24T17:29:36.209Z,16.23
2018-12-24T17:32:06.286Z,17.77
2018-12-24T17:34:36.248Z,17.87
2018-12-24T17:37:06.301Z,15.80
2018-12-24T17:39:36.251Z,18.77
2018-12-24T17:42:06.170Z,18.30
2018-12-24T17:44:36.139Z,19.70
2018-12-24T17:47:06.236Z,25.87
2018-12-24T17:49:36.163Z,23.60
2018-12-24T17:52:06.198Z,21.93
2018-12-24T17:54:36.142Z,26.27
2018-12-24T17:57:06.061Z,26.40
2018-12-24T17:59:36.033Z,30.77
2018-12-24T18:02:06.085Z,31.67
2018-12-24T18:04:36.010Z,42.67
2018-12-24T18:07:05.981Z,41.17
2018-12-24T18:09:35.950Z,29.00
2018-12-24T18:12:05.943Z,28.20
2018-12-24T18:14:35.960Z,29.97
2018-12-24T18:17:05.900Z,26.83
2018-12-24T18:19:35.831Z,23.50
2018-12-24T18:22:05.968Z,20.97
2018-12-24T18:24:35.995Z,21.00
2018-12-24T18:27:05.960Z,21.50
2018-12-24T18:29:35.976Z,22.30
2018-12-24T18:32:06.140Z,20.25
2018-12-24T18:34:36.307Z,20.80
2018-12-24T18:37:06.287Z,25.23
2018-12-24T18:39:36.210Z,25.83
2018-12-24T18:42:07.211Z,25.37
2018-12-24T18:44:37.184Z,27.40
2018-12-24T18:47:07.247Z,24.97
2018-12-24T18:49:37.301Z,21.97
2018-12-24T18:52:07.264Z,26.23
2018-12-24T18:54:37.407Z,27.53
2018-12-24T18:57:07.338Z,24.40
2018-12-24T18:59:37.345Z,154.50
2018-12-24T19:02:07.270Z,178.60
2018-12-24T19:04:39.326Z,420.23
2018-12-24T19:07:09.451Z,323.40
2018-12-24T19:09:39.675Z,157.33
2018-12-24T19:12:09.609Z,104.30
2018-12-24T19:14:39.595Z,80.03
2018-12-24T19:17:09.563Z,66.27
2018-12-24T19:19:39.601Z,209.40
2018-12-24T19:22:09.631Z,610.03
2018-12-24T19:24:39.599Z,829.70
2018-12-24T19:27:09.560Z,471.37
2018-12-24T19:29:39.581Z,177.10
2018-12-24T19:32:09.546Z,69.77
2018-12-24T19:34:39.579Z,42.70
2018-12-24T19:37:09.551Z,37.70
2018-12-24T19:39:39.515Z,30.60
2018-12-24T19:42:09.444Z,103.37
2018-12-24T19:44:39.497Z,100.70
2018-12-24T19:47:09.475Z,143.43
2018-12-24T19:49:39.506Z,153.37
2018-12-24T19:52:09.493Z,190.83
2018-12-24T19:54:39.466Z,126.60
2018-12-24T19:57:09.440Z,94.30
2018-12-24T19:59:39.424Z,149.73
2018-12-24T20:02:09.356Z,316.10
2018-12-24T20:04:39.327Z,217.60
2018-12-24T20:07:09.306Z,162.57
2018-12-24T20:09:39.333Z,582.67
2018-12-24T20:12:09.324Z,398.77
2018-12-24T20:14:39.341Z,490.80
2018-12-24T20:17:09.290Z,300.73
2018-12-24T20:19:39.274Z,109.13
2018-12-24T20:22:09.349Z,64.07
2018-12-24T20:24:39.295Z,44.50
2018-12-24T20:27:09.231Z,37.20
2018-12-24T20:29:39.313Z,33.27
2018-12-24T20:32:09.327Z,32.40
2018-12-24T20:34:39.299Z,28.63
2018-12-24T20:37:09.581Z,25.03
2018-12-24T20:39:39.624Z,26.23
2018-12-24T20:42:09.659Z,27.43
2018-12-24T20:44:39.647Z,26.03
2018-12-24T20:47:09.603Z,32.53
2018-12-24T20:49:39.542Z,24.00
2018-12-24T20:52:09.527Z,20.70
2018-12-24T20:54:39.496Z,22.17
2018-12-24T20:57:09.429Z,23.60
2018-12-24T20:59:39.379Z,28.27
2018-12-24T21:02:09.331Z,28.40
2018-12-24T21:04:39.264Z,25.63
2018-12-24T21:07:09.231Z,24.00
2018-12-24T21:09:39.182Z,22.90
2018-12-24T21:12:09.128Z,24.53
2018-12-24T21:14:39.155Z,25.40
2018-12-24T21:17:09.122Z,19.77
2018-12-24T21:19:39.071Z,21.20
2018-12-24T21:22:09.120Z,19.43
2018-12-24T21:24:39.057Z,20.40
2018-12-24T21:27:09.006Z,21.07
2018-12-24T21:29:38.980Z,21.17
2018-12-24T21:32:08.924Z,17.20
2018-12-24T21:34:38.848Z,16.37
2018-12-24T21:37:08.813Z,17.43
2018-12-24T21:39:38.901Z,20.67
2018-12-24T21:42:08.834Z,26.70
2018-12-24T21:44:38.802Z,26.23
2018-12-24T21:47:08.758Z,26.90
2018-12-24T21:49:38.727Z,29.63
2018-12-24T21:52:08.704Z,27.87
2018-12-24T21:54:38.629Z,30.00
2018-12-24T21:57:09.702Z,25.67
2018-12-24T21:59:39.651Z,27.67
2018-12-24T22:02:09.679Z,27.80
2018-12-24T22:04:39.750Z,26.47
2018-12-24T22:07:09.744Z,26.57
2018-12-24T22:09:39.696Z,24.27
2018-12-24T22:12:09.626Z,22.17
2018-12-24T22:14:39.650Z,25.47
2018-12-24T22:17:09.620Z,24.03
2018-12-24T22:19:39.579Z,23.90
2018-12-24T22:22:09.587Z,24.43
2018-12-24T22:24:39.599Z,22.90
2018-12-24T22:27:09.546Z,24.03
2018-12-24T22:29:39.523Z,25.00
2018-12-24T22:32:09.475Z,24.00
2018-12-24T22:34:39.402Z,23.20
2018-12-24T22:37:09.366Z,21.57
2018-12-24T22:39:39.303Z,19.40
2018-12-24T22:42:09.387Z,19.07
2018-12-24T22:44:39.400Z,16.43
2018-12-24T22:47:09.339Z,16.90
2018-12-24T22:49:39.274Z,18.67
2018-12-24T22:52:09.251Z,15.97
2018-12-24T22:54:39.218Z,15.97
2018-12-24T22:57:09.159Z,74.53
2018-12-24T22:59:39.153Z,179.20
2018-12-24T23:02:09.206Z,397.13
2018-12-24T23:04:39.184Z,152.43
2018-12-24T23:07:09.147Z,30.67
2018-12-24T23:09:39.113Z,34.97
2018-12-24T23:12:09.093Z,18.00
2018-12-24T23:14:39.043Z,20.40
2018-12-24T23:17:09.025Z,23.60
2018-12-24T23:19:38.955Z,73.05
2018-12-24T23:22:10.994Z,25.30
2018-12-24T23:24:40.589Z,19.00
2018-12-24T23:27:10.531Z,47.73
2018-12-24T23:29:40.805Z,42.20
2018-12-24T23:32:10.757Z,19.47
2018-12-24T23:34:40.748Z,10.63
2018-12-24T23:37:10.772Z,5.73
2018-12-24T23:39:40.736Z,15.03
2018-12-24T23:42:10.923Z,48.70
2018-12-24T23:44:40.984Z,163.80
2018-12-24T23:47:10.953Z,176.90
2018-12-24T23:49:40.907Z,58.50
2018-12-24T23:52:10.898Z,16.30
2018-12-24T23:54:40.842Z,15.03
2018-12-24T23:57:10.807Z,17.50
2018-12-24T23:59:40.777Z,18.77
